sensor_id;sensor_type;location;lat;lon;timestamp;temperature;humidity
15343;DHT22;7771;48.478;8.936;2022-10-17T00:02:12;14.30;99.90
15343;DHT22;7771;48.478;8.936;2022-10-17T00:04:39;14.30;99.90
15343;DHT22;7771;48.478;8.936;2022-10-17T00:07:05;14.30;99.90
15343;DHT22;7771;48.478;8.936;2022-10-17T00:09:32;14.30;99.90
15343;DHT22;7771;48.478;8.936;2022-10-17T00:11:58;14.40;99.90
15343;DHT22;7771;48.478;8.936;2022-10-17T00:14:25;14.30;99.90
15343;DHT22;7771;48.478;8.936;2022-10-17T00:16:52;14.20;99.90
15343;DHT22;7771;48.478;8.936;2022-10-17T00:19:20;14.20;99.90
15343;DHT22;7771;48.478;8.936;2022-10-17T00:21:47;14.10;99.90
15343;DHT22;7771;48.478;8.936;2022-10-17T00:24:13;14.10;99.90
15343;DHT22;7771;48.478;8.936;2022-10-17T00:26:41;14.00;99.90
15343;DHT22;7771;48.478;8.936;2022-10-17T00:29:08;14.00;99.90
15343;DHT22;7771;48.478;8.936;2022-10-17T00:31:35;14.00;99.90
15343;DHT22;7771;48.478;8.936;2022-10-17T00:34:03;13.90;99.90
15343;DHT22;7771;48.478;8.936;2022-10-17T00:36:29;13.90;99.90
15343;DHT22;7771;48.478;8.936;2022-10-17T00:38:57;13.90;99.90
15343;DHT22;7771;48.478;8.936;2022-10-17T00:41:25;13.90;99.90
15343;DHT22;7771;48.478;8.936;2022-10-17T00:43:51;13.80;99.90
15343;DHT22;7771;48.478;8.936;2022-10-17T00:46:18;13.80;99.90
15343;DHT22;7771;48.478;8.936;2022-10-17T00:48:45;13.80;99.90
15343;DHT22;7771;48.478;8.936;2022-10-17T00:51:11;13.80;99.90
15343;DHT22;7771;48.478;8.936;2022-10-17T00:53:38;13.80;99.90
15343;DHT22;7771;48.478;8.936;2022-10-17T00:56:05;13.70;99.90
15343;DHT22;7771;48.478;8.936;2022-10-17T00:58:32;13.70;99.90
15343;DHT22;7771;48.478;8.936;2022-10-17T01:00:59;13.70;99.90
15343;DHT22;7771;48.478;8.936;2022-10-17T01:03:25;13.70;99.90
15343;DHT22;7771;48.478;8.936;2022-10-17T01:05:52;13.70;99.90
15343;DHT22;7771;48.478;8.936;2022-10-17T01:08:19;13.80;99.90
15343;DHT22;7771;48.478;8.936;2022-10-17T01:11:12;13.80;99.90
15343;DHT22;7771;48.478;8.936;2022-10-17T01:13:52;13.70;99.90
15343;DHT22;7771;48.478;8.936;2022-10-17T01:16:28;13.60;99.90
15343;DHT22;7771;48.478;8.936;2022-10-17T01:19:01;13.60;99.90
15343;DHT22;7771;48.478;8.936;2022-10-17T01:32:24;13.40;99.90
15343;DHT22;7771;48.478;8.936;2022-10-17T01:34:53;13.40;99.90
15343;DHT22;7771;48.478;8.936;2022-10-17T01:37:21;13.30;99.90
15343;DHT22;7771;48.478;8.936;2022-10-17T01:39:48;13.40;99.90
15343;DHT22;7771;48.478;8.936;2022-10-17T01:42:23;13.40;99.90
15343;DHT22;7771;48.478;8.936;2022-10-17T01:44:57;13.40;99.90
15343;DHT22;7771;48.478;8.936;2022-10-17T01:47:27;13.30;99.90
15343;DHT22;7771;48.478;8.936;2022-10-17T01:49:54;13.30;99.90
15343;DHT22;7771;48.478;8.936;2022-10-17T01:52:24;13.30;99.90
15343;DHT22;7771;48.478;8.936;2022-10-17T01:54:52;13.30;99.90
15343;DHT22;7771;48.478;8.936;2022-10-17T01:57:29;13.30;99.90
15343;DHT22;7771;48.478;8.936;2022-10-17T01:59:57;13.20;99.90
15343;DHT22;7771;48.478;8.936;2022-10-17T02:02:24;13.20;99.90
15343;DHT22;7771;48.478;8.936;2022-10-17T02:04:51;13.10;99.90
15343;DHT22;7771;48.478;8.936;2022-10-17T02:07:18;13.10;99.90
15343;DHT22;7771;48.478;8.936;2022-10-17T02:09:45;13.10;99.90
15343;DHT22;7771;48.478;8.936;2022-10-17T02:12:23;13.10;99.90
15343;DHT22;7771;48.478;8.936;2022-10-17T02:17:44;13.10;99.90
15343;DHT22;7771;48.478;8.936;2022-10-17T02:20:16;13.10;99.90
15343;DHT22;7771;48.478;8.936;2022-10-17T02:22:43;13.10;99.90
15343;DHT22;7771;48.478;8.936;2022-10-17T02:25:12;13.00;99.90
15343;DHT22;7771;48.478;8.936;2022-10-17T02:27:59;13.10;99.90
15343;DHT22;7771;48.478;8.936;2022-10-17T02:30:38;13.00;99.90
15343;DHT22;7771;48.478;8.936;2022-10-17T02:33:14;12.90;99.90
15343;DHT22;7771;48.478;8.936;2022-10-17T02:35:41;12.90;99.90
15343;DHT22;7771;48.478;8.936;2022-10-17T02:38:06;12.80;99.90
15343;DHT22;7771;48.478;8.936;2022-10-17T02:40:34;12.70;99.90
15343;DHT22;7771;48.478;8.936;2022-10-17T02:43:01;12.70;99.90
15343;DHT22;7771;48.478;8.936;2022-10-17T02:45:28;12.60;99.90
15343;DHT22;7771;48.478;8.936;2022-10-17T02:47:59;12.60;99.90
15343;DHT22;7771;48.478;8.936;2022-10-17T02:50:31;12.50;99.90
15343;DHT22;7771;48.478;8.936;2022-10-17T02:52:56;12.60;99.90
15343;DHT22;7771;48.478;8.936;2022-10-17T02:55:29;12.60;99.90
15343;DHT22;7771;48.478;8.936;2022-10-17T02:57:56;12.60;99.90
15343;DHT22;7771;48.478;8.936;2022-10-17T03:00:22;12.60;99.90
15343;DHT22;7771;48.478;8.936;2022-10-17T03:02:49;12.60;99.90
15343;DHT22;7771;48.478;8.936;2022-10-17T03:05:18;12.60;99.90
15343;DHT22;7771;48.478;8.936;2022-10-17T03:07:44;12.60;99.90
15343;DHT22;7771;48.478;8.936;2022-10-17T03:10:10;12.70;99.90
15343;DHT22;7771;48.478;8.936;2022-10-17T03:12:37;12.80;99.90
15343;DHT22;7771;48.478;8.936;2022-10-17T03:15:04;12.70;99.90
15343;DHT22;7771;48.478;8.936;2022-10-17T03:17:30;12.70;99.90
15343;DHT22;7771;48.478;8.936;2022-10-17T03:19:57;12.60;99.90
15343;DHT22;7771;48.478;8.936;2022-10-17T03:22:24;12.60;99.90
15343;DHT22;7771;48.478;8.936;2022-10-17T03:24:52;12.60;99.90
15343;DHT22;7771;48.478;8.936;2022-10-17T03:27:19;12.70;99.90
15343;DHT22;7771;48.478;8.936;2022-10-17T03:29:46;12.60;99.90
15343;DHT22;7771;48.478;8.936;2022-10-17T03:32:13;12.60;99.90
15343;DHT22;7771;48.478;8.936;2022-10-17T03:34:40;12.60;99.90
15343;DHT22;7771;48.478;8.936;2022-10-17T03:37:07;12.50;99.90
15343;DHT22;7771;48.478;8.936;2022-10-17T03:39:35;12.50;99.90
15343;DHT22;7771;48.478;8.936;2022-10-17T03:42:01;12.40;99.90
15343;DHT22;7771;48.478;8.936;2022-10-17T03:44:28;12.40;99.90
15343;DHT22;7771;48.478;8.936;2022-10-17T03:46:56;12.40;99.90
15343;DHT22;7771;48.478;8.936;2022-10-17T03:49:23;12.50;99.90
15343;DHT22;7771;48.478;8.936;2022-10-17T03:51:50;12.50;99.90
15343;DHT22;7771;48.478;8.936;2022-10-17T03:54:18;12.50;99.90
15343;DHT22;7771;48.478;8.936;2022-10-17T03:56:45;12.50;99.90
15343;DHT22;7771;48.478;8.936;2022-10-17T03:59:12;12.50;99.90
15343;DHT22;7771;48.478;8.936;2022-10-17T04:01:40;12.40;99.90
15343;DHT22;7771;48.478;8.936;2022-10-17T04:04:07;12.50;99.90
15343;DHT22;7771;48.478;8.936;2022-10-17T04:06:33;12.50;99.90
15343;DHT22;7771;48.478;8.936;2022-10-17T04:09:00;12.40;99.90
15343;DHT22;7771;48.478;8.936;2022-10-17T04:11:26;12.40;99.90
15343;DHT22;7771;48.478;8.936;2022-10-17T04:13:54;12.40;99.90
15343;DHT22;7771;48.478;8.936;2022-10-17T04:16:20;12.40;99.90
15343;DHT22;7771;48.478;8.936;2022-10-17T04:18:51;12.40;99.90
15343;DHT22;7771;48.478;8.936;2022-10-17T04:21:15;12.40;99.90
15343;DHT22;7771;48.478;8.936;2022-10-17T04:23:41;12.30;99.90
15343;DHT22;7771;48.478;8.936;2022-10-17T04:26:08;12.30;99.90
15343;DHT22;7771;48.478;8.936;2022-10-17T04:28:35;12.30;99.90
15343;DHT22;7771;48.478;8.936;2022-10-17T04:31:03;12.30;99.90
15343;DHT22;7771;48.478;8.936;2022-10-17T04:33:29;12.30;99.90
15343;DHT22;7771;48.478;8.936;2022-10-17T04:35:56;12.30;99.90
15343;DHT22;7771;48.478;8.936;2022-10-17T04:38:23;12.20;99.90
15343;DHT22;7771;48.478;8.936;2022-10-17T04:40:50;12.10;99.90
15343;DHT22;7771;48.478;8.936;2022-10-17T04:43:17;12.10;99.90
15343;DHT22;7771;48.478;8.936;2022-10-17T04:45:44;12.10;99.90
15343;DHT22;7771;48.478;8.936;2022-10-17T04:48:10;12.10;99.90
15343;DHT22;7771;48.478;8.936;2022-10-17T04:50:37;12.10;99.90
15343;DHT22;7771;48.478;8.936;2022-10-17T04:53:04;12.10;99.90
15343;DHT22;7771;48.478;8.936;2022-10-17T04:55:31;12.00;99.90
15343;DHT22;7771;48.478;8.936;2022-10-17T04:57:58;12.00;99.90
15343;DHT22;7771;48.478;8.936;2022-10-17T05:00:24;12.00;99.90
15343;DHT22;7771;48.478;8.936;2022-10-17T05:02:52;12.00;99.90
15343;DHT22;7771;48.478;8.936;2022-10-17T05:05:18;11.90;99.90
15343;DHT22;7771;48.478;8.936;2022-10-17T05:07:45;12.00;99.90
15343;DHT22;7771;48.478;8.936;2022-10-17T05:10:12;12.00;99.90
15343;DHT22;7771;48.478;8.936;2022-10-17T05:12:39;12.00;99.90
15343;DHT22;7771;48.478;8.936;2022-10-17T05:15:07;11.90;99.90
15343;DHT22;7771;48.478;8.936;2022-10-17T05:17:34;12.00;99.90
15343;DHT22;7771;48.478;8.936;2022-10-17T05:20:02;12.00;99.90
15343;DHT22;7771;48.478;8.936;2022-10-17T05:22:29;11.90;99.90
15343;DHT22;7771;48.478;8.936;2022-10-17T05:24:56;11.90;99.90
15343;DHT22;7771;48.478;8.936;2022-10-17T05:27:23;11.90;99.90
15343;DHT22;7771;48.478;8.936;2022-10-17T05:29:50;11.90;99.90
15343;DHT22;7771;48.478;8.936;2022-10-17T05:32:17;11.80;99.90
15343;DHT22;7771;48.478;8.936;2022-10-17T05:34:44;11.80;99.90
15343;DHT22;7771;48.478;8.936;2022-10-17T05:37:11;11.80;99.90
15343;DHT22;7771;48.478;8.936;2022-10-17T05:39:39;11.80;99.90
15343;DHT22;7771;48.478;8.936;2022-10-17T05:42:06;11.70;99.90
15343;DHT22;7771;48.478;8.936;2022-10-17T05:44:32;11.80;99.90
15343;DHT22;7771;48.478;8.936;2022-10-17T05:46:59;11.80;99.90
15343;DHT22;7771;48.478;8.936;2022-10-17T05:49:26;11.80;99.90
15343;DHT22;7771;48.478;8.936;2022-10-17T05:51:53;11.70;99.90
15343;DHT22;7771;48.478;8.936;2022-10-17T05:54:20;11.70;99.90
15343;DHT22;7771;48.478;8.936;2022-10-17T05:56:50;11.70;99.90
15343;DHT22;7771;48.478;8.936;2022-10-17T05:59:14;11.70;99.90
15343;DHT22;7771;48.478;8.936;2022-10-17T06:01:41;11.70;99.90
15343;DHT22;7771;48.478;8.936;2022-10-17T06:04:08;11.70;99.90
15343;DHT22;7771;48.478;8.936;2022-10-17T06:06:35;11.60;99.90
15343;DHT22;7771;48.478;8.936;2022-10-17T06:09:03;11.60;99.90
15343;DHT22;7771;48.478;8.936;2022-10-17T06:11:30;11.70;99.90
15343;DHT22;7771;48.478;8.936;2022-10-17T06:13:57;11.70;99.90
15343;DHT22;7771;48.478;8.936;2022-10-17T06:16:23;11.70;99.90
15343;DHT22;7771;48.478;8.936;2022-10-17T06:18:50;11.70;99.90
15343;DHT22;7771;48.478;8.936;2022-10-17T06:21:18;11.70;99.90
15343;DHT22;7771;48.478;8.936;2022-10-17T06:23:43;11.80;99.90
15343;DHT22;7771;48.478;8.936;2022-10-17T06:26:10;11.80;99.90
15343;DHT22;7771;48.478;8.936;2022-10-17T06:28:37;11.80;99.90
15343;DHT22;7771;48.478;8.936;2022-10-17T06:31:07;11.80;99.90
15343;DHT22;7771;48.478;8.936;2022-10-17T06:33:33;11.80;99.90
15343;DHT22;7771;48.478;8.936;2022-10-17T06:36:00;11.80;99.90
15343;DHT22;7771;48.478;8.936;2022-10-17T06:38:27;11.80;99.90
15343;DHT22;7771;48.478;8.936;2022-10-17T06:41:00;11.80;99.90
15343;DHT22;7771;48.478;8.936;2022-10-17T06:43:21;12.00;99.90
15343;DHT22;7771;48.478;8.936;2022-10-17T06:45:47;12.00;99.90
15343;DHT22;7771;48.478;8.936;2022-10-17T06:48:14;12.00;99.90
15343;DHT22;7771;48.478;8.936;2022-10-17T06:50:41;12.10;99.90
15343;DHT22;7771;48.478;8.936;2022-10-17T06:53:07;12.10;99.90
15343;DHT22;7771;48.478;8.936;2022-10-17T06:55:35;12.20;99.90
15343;DHT22;7771;48.478;8.936;2022-10-17T06:58:03;12.20;99.90
15343;DHT22;7771;48.478;8.936;2022-10-17T07:00:31;12.30;99.90
15343;DHT22;7771;48.478;8.936;2022-10-17T07:02:58;12.40;99.90
15343;DHT22;7771;48.478;8.936;2022-10-17T07:05:25;12.40;99.90
15343;DHT22;7771;48.478;8.936;2022-10-17T07:07:52;12.50;99.90
15343;DHT22;7771;48.478;8.936;2022-10-17T07:10:19;12.60;99.90
15343;DHT22;7771;48.478;8.936;2022-10-17T07:12:47;12.70;99.90
15343;DHT22;7771;48.478;8.936;2022-10-17T07:15:13;12.80;99.90
15343;DHT22;7771;48.478;8.936;2022-10-17T07:17:41;12.90;99.90
15343;DHT22;7771;48.478;8.936;2022-10-17T07:20:08;13.00;99.90
15343;DHT22;7771;48.478;8.936;2022-10-17T07:22:36;13.20;99.90
15343;DHT22;7771;48.478;8.936;2022-10-17T07:25:02;13.30;99.90
15343;DHT22;7771;48.478;8.936;2022-10-17T07:27:29;13.70;99.90
15343;DHT22;7771;48.478;8.936;2022-10-17T07:29:57;14.10;99.90
15343;DHT22;7771;48.478;8.936;2022-10-17T07:32:24;14.40;99.90
15343;DHT22;7771;48.478;8.936;2022-10-17T07:34:51;14.60;99.90
15343;DHT22;7771;48.478;8.936;2022-10-17T07:37:18;14.80;99.90
15343;DHT22;7771;48.478;8.936;2022-10-17T07:39:45;15.00;99.90
15343;DHT22;7771;48.478;8.936;2022-10-17T07:42:11;15.10;99.90
15343;DHT22;7771;48.478;8.936;2022-10-17T07:44:39;15.20;99.90
15343;DHT22;7771;48.478;8.936;2022-10-17T07:47:06;15.40;99.90
15343;DHT22;7771;48.478;8.936;2022-10-17T07:49:33;15.60;99.90
15343;DHT22;7771;48.478;8.936;2022-10-17T07:52:00;15.70;99.90
15343;DHT22;7771;48.478;8.936;2022-10-17T07:54:27;15.80;99.90
15343;DHT22;7771;48.478;8.936;2022-10-17T07:56:54;16.00;99.90
15343;DHT22;7771;48.478;8.936;2022-10-17T07:59:21;16.20;99.90
15343;DHT22;7771;48.478;8.936;2022-10-17T08:01:48;16.40;99.90
15343;DHT22;7771;48.478;8.936;2022-10-17T08:04:15;16.60;99.90
15343;DHT22;7771;48.478;8.936;2022-10-17T08:06:42;16.90;99.90
15343;DHT22;7771;48.478;8.936;2022-10-17T08:09:08;17.20;99.90
15343;DHT22;7771;48.478;8.936;2022-10-17T08:11:35;17.40;99.90
15343;DHT22;7771;48.478;8.936;2022-10-17T08:14:02;17.60;99.90
15343;DHT22;7771;48.478;8.936;2022-10-17T08:16:28;17.90;99.90
15343;DHT22;7771;48.478;8.936;2022-10-17T08:18:55;18.10;99.90
15343;DHT22;7771;48.478;8.936;2022-10-17T08:21:21;18.40;99.90
15343;DHT22;7771;48.478;8.936;2022-10-17T08:23:48;18.40;99.90
15343;DHT22;7771;48.478;8.936;2022-10-17T08:26:15;18.70;99.90
15343;DHT22;7771;48.478;8.936;2022-10-17T08:28:42;18.70;99.90
15343;DHT22;7771;48.478;8.936;2022-10-17T08:31:10;18.90;99.90
15343;DHT22;7771;48.478;8.936;2022-10-17T08:33:35;19.10;99.90
15343;DHT22;7771;48.478;8.936;2022-10-17T08:36:02;19.20;99.90
15343;DHT22;7771;48.478;8.936;2022-10-17T08:38:28;19.30;99.90
15343;DHT22;7771;48.478;8.936;2022-10-17T08:40:59;19.50;99.90
15343;DHT22;7771;48.478;8.936;2022-10-17T08:43:29;19.60;99.90
15343;DHT22;7771;48.478;8.936;2022-10-17T08:45:56;19.70;99.90
15343;DHT22;7771;48.478;8.936;2022-10-17T08:48:23;19.80;99.90
15343;DHT22;7771;48.478;8.936;2022-10-17T08:50:58;19.90;99.90
15343;DHT22;7771;48.478;8.936;2022-10-17T08:56:19;20.10;99.90
15343;DHT22;7771;48.478;8.936;2022-10-17T08:58:44;20.10;99.90
15343;DHT22;7771;48.478;8.936;2022-10-17T09:04:00;20.50;99.90
15343;DHT22;7771;48.478;8.936;2022-10-17T09:06:26;20.50;99.90
15343;DHT22;7771;48.478;8.936;2022-10-17T09:09:09;20.50;99.90
15343;DHT22;7771;48.478;8.936;2022-10-17T09:11:31;20.70;99.90
15343;DHT22;7771;48.478;8.936;2022-10-17T09:16:43;20.90;99.90
15343;DHT22;7771;48.478;8.936;2022-10-17T09:21:55;21.40;99.90
15343;DHT22;7771;48.478;8.936;2022-10-17T09:26:55;21.60;99.90
15343;DHT22;7771;48.478;8.936;2022-10-17T09:29:23;21.60;99.90
15343;DHT22;7771;48.478;8.936;2022-10-17T09:32:01;21.70;99.90
15343;DHT22;7771;48.478;8.936;2022-10-17T09:34:29;22.00;99.90
15343;DHT22;7771;48.478;8.936;2022-10-17T09:36:56;22.10;99.90
15343;DHT22;7771;48.478;8.936;2022-10-17T09:39:22;22.10;99.90
15343;DHT22;7771;48.478;8.936;2022-10-17T09:41:52;22.20;99.90
15343;DHT22;7771;48.478;8.936;2022-10-17T09:44:25;22.30;99.90
15343;DHT22;7771;48.478;8.936;2022-10-17T09:47:13;22.40;99.90
15343;DHT22;7771;48.478;8.936;2022-10-17T09:49:38;22.40;99.90
15343;DHT22;7771;48.478;8.936;2022-10-17T09:52:05;22.50;99.90
15343;DHT22;7771;48.478;8.936;2022-10-17T09:54:43;22.60;99.90
15343;DHT22;7771;48.478;8.936;2022-10-17T09:57:08;22.60;99.90
15343;DHT22;7771;48.478;8.936;2022-10-17T09:59:36;22.60;99.90
15343;DHT22;7771;48.478;8.936;2022-10-17T10:02:09;22.60;99.90
15343;DHT22;7771;48.478;8.936;2022-10-17T10:04:35;22.60;99.90
15343;DHT22;7771;48.478;8.936;2022-10-17T10:07:03;22.60;99.90
15343;DHT22;7771;48.478;8.936;2022-10-17T10:09:30;22.70;99.90
15343;DHT22;7771;48.478;8.936;2022-10-17T10:11:56;22.70;99.90
15343;DHT22;7771;48.478;8.936;2022-10-17T10:14:28;22.70;99.90
15343;DHT22;7771;48.478;8.936;2022-10-17T10:16:54;22.90;99.90
15343;DHT22;7771;48.478;8.936;2022-10-17T10:19:27;22.90;99.90
15343;DHT22;7771;48.478;8.936;2022-10-17T10:21:54;22.90;99.90
15343;DHT22;7771;48.478;8.936;2022-10-17T10:24:20;22.90;99.90
15343;DHT22;7771;48.478;8.936;2022-10-17T10:26:48;22.90;99.90
15343;DHT22;7771;48.478;8.936;2022-10-17T10:29:21;22.90;99.90
15343;DHT22;7771;48.478;8.936;2022-10-17T10:31:47;22.90;99.90
15343;DHT22;7771;48.478;8.936;2022-10-17T10:34:21;23.00;99.90
15343;DHT22;7771;48.478;8.936;2022-10-17T10:36:52;23.00;99.90
15343;DHT22;7771;48.478;8.936;2022-10-17T10:39:31;23.20;99.90
15343;DHT22;7771;48.478;8.936;2022-10-17T10:41:57;23.30;99.90
15343;DHT22;7771;48.478;8.936;2022-10-17T10:44:25;23.40;99.90
15343;DHT22;7771;48.478;8.936;2022-10-17T10:47:08;23.50;99.90
15343;DHT22;7771;48.478;8.936;2022-10-17T10:49:33;23.50;99.90
15343;DHT22;7771;48.478;8.936;2022-10-17T10:52:00;23.50;99.90
15343;DHT22;7771;48.478;8.936;2022-10-17T10:54:28;23.50;99.90
15343;DHT22;7771;48.478;8.936;2022-10-17T10:56:57;23.50;99.90
15343;DHT22;7771;48.478;8.936;2022-10-17T10:59:30;23.50;99.90
15343;DHT22;7771;48.478;8.936;2022-10-17T11:02:00;23.50;99.90
15343;DHT22;7771;48.478;8.936;2022-10-17T11:04:51;23.60;99.90
15343;DHT22;7771;48.478;8.936;2022-10-17T11:07:22;23.50;99.90
15343;DHT22;7771;48.478;8.936;2022-10-17T11:09:57;23.70;99.90
15343;DHT22;7771;48.478;8.936;2022-10-17T11:12:26;23.70;99.90
15343;DHT22;7771;48.478;8.936;2022-10-17T11:17:39;23.90;99.90
15343;DHT22;7771;48.478;8.936;2022-10-17T11:20:14;24.00;99.90
15343;DHT22;7771;48.478;8.936;2022-10-17T11:22:46;24.00;99.90
15343;DHT22;7771;48.478;8.936;2022-10-17T11:25:30;24.10;99.90
15343;DHT22;7771;48.478;8.936;2022-10-17T11:27:56;24.20;99.90
15343;DHT22;7771;48.478;8.936;2022-10-17T11:30:23;24.30;99.90
15343;DHT22;7771;48.478;8.936;2022-10-17T11:32:52;24.30;99.90
15343;DHT22;7771;48.478;8.936;2022-10-17T11:35:21;24.50;99.90
15343;DHT22;7771;48.478;8.936;2022-10-17T11:37:52;24.40;99.90
15343;DHT22;7771;48.478;8.936;2022-10-17T11:40:21;24.70;99.90
15343;DHT22;7771;48.478;8.936;2022-10-17T11:42:58;24.80;99.90
15343;DHT22;7771;48.478;8.936;2022-10-17T11:45:25;24.90;99.90
15343;DHT22;7771;48.478;8.936;2022-10-17T11:47:54;25.10;99.90
15343;DHT22;7771;48.478;8.936;2022-10-17T11:50:36;25.00;99.90
15343;DHT22;7771;48.478;8.936;2022-10-17T11:53:15;25.20;99.90
15343;DHT22;7771;48.478;8.936;2022-10-17T11:55:44;25.40;99.90
15343;DHT22;7771;48.478;8.936;2022-10-17T12:00:51;25.60;99.60
15343;DHT22;7771;48.478;8.936;2022-10-17T12:03:24;25.70;98.80
15343;DHT22;7771;48.478;8.936;2022-10-17T12:05:58;25.70;98.00
15343;DHT22;7771;48.478;8.936;2022-10-17T12:08:30;25.70;98.00
15343;DHT22;7771;48.478;8.936;2022-10-17T12:11:11;25.80;97.10
15343;DHT22;7771;48.478;8.936;2022-10-17T12:13:49;25.90;95.50
15343;DHT22;7771;48.478;8.936;2022-10-17T12:16:36;25.90;94.60
15343;DHT22;7771;48.478;8.936;2022-10-17T12:19:19;25.90;95.10
15343;DHT22;7771;48.478;8.936;2022-10-17T12:21:54;25.90;95.10
15343;DHT22;7771;48.478;8.936;2022-10-17T12:26:53;25.90;93.70
15343;DHT22;7771;48.478;8.936;2022-10-17T12:29:26;26.00;94.00
15343;DHT22;7771;48.478;8.936;2022-10-17T12:31:51;26.00;92.90
15343;DHT22;7771;48.478;8.936;2022-10-17T12:34:17;26.00;93.20
15343;DHT22;7771;48.478;8.936;2022-10-17T12:36:45;26.10;92.50
15343;DHT22;7771;48.478;8.936;2022-10-17T12:39:40;26.20;92.00
15343;DHT22;7771;48.478;8.936;2022-10-17T12:41:52;26.20;91.70
15343;DHT22;7771;48.478;8.936;2022-10-17T12:44:34;26.20;92.00
15343;DHT22;7771;48.478;8.936;2022-10-17T12:49:56;26.20;92.40
15343;DHT22;7771;48.478;8.936;2022-10-17T12:55:23;26.20;92.20
15343;DHT22;7771;48.478;8.936;2022-10-17T12:57:57;26.10;92.20
15343;DHT22;7771;48.478;8.936;2022-10-17T13:00:42;26.10;92.20
15343;DHT22;7771;48.478;8.936;2022-10-17T13:03:16;26.10;92.20
15343;DHT22;7771;48.478;8.936;2022-10-17T13:05:44;26.10;92.10
15343;DHT22;7771;48.478;8.936;2022-10-17T13:08:13;26.10;91.40
15343;DHT22;7771;48.478;8.936;2022-10-17T13:10:36;26.10;91.70
15343;DHT22;7771;48.478;8.936;2022-10-17T13:15:44;26.00;91.60
15343;DHT22;7771;48.478;8.936;2022-10-17T13:18:12;26.00;91.90
15343;DHT22;7771;48.478;8.936;2022-10-17T13:20:33;26.00;92.00
15343;DHT22;7771;48.478;8.936;2022-10-17T13:23:00;26.00;91.40
15343;DHT22;7771;48.478;8.936;2022-10-17T13:25:27;26.00;91.10
15343;DHT22;7771;48.478;8.936;2022-10-17T13:30:28;25.90;91.40
15343;DHT22;7771;48.478;8.936;2022-10-17T13:32:53;25.80;90.90
15343;DHT22;7771;48.478;8.936;2022-10-17T13:35:26;25.80;91.10
15343;DHT22;7771;48.478;8.936;2022-10-17T13:37:50;25.80;90.90
15343;DHT22;7771;48.478;8.936;2022-10-17T13:40:19;25.70;91.10
15343;DHT22;7771;48.478;8.936;2022-10-17T13:42:45;25.70;91.20
15343;DHT22;7771;48.478;8.936;2022-10-17T13:45:16;25.80;91.10
15343;DHT22;7771;48.478;8.936;2022-10-17T13:47:41;25.70;90.80
15343;DHT22;7771;48.478;8.936;2022-10-17T13:50:14;25.70;91.50
15343;DHT22;7771;48.478;8.936;2022-10-17T13:52:35;25.70;91.40
15343;DHT22;7771;48.478;8.936;2022-10-17T13:55:07;25.70;91.80
15343;DHT22;7771;48.478;8.936;2022-10-17T13:57:32;25.70;92.00
15343;DHT22;7771;48.478;8.936;2022-10-17T14:00:03;25.70;92.00
15343;DHT22;7771;48.478;8.936;2022-10-17T14:02:28;25.70;92.00
15343;DHT22;7771;48.478;8.936;2022-10-17T14:05:14;25.60;92.20
15343;DHT22;7771;48.478;8.936;2022-10-17T14:07:55;25.50;92.10
15343;DHT22;7771;48.478;8.936;2022-10-17T14:10:23;25.40;92.10
15343;DHT22;7771;48.478;8.936;2022-10-17T14:12:50;25.40;92.00
15343;DHT22;7771;48.478;8.936;2022-10-17T14:15:17;25.40;92.10
15343;DHT22;7771;48.478;8.936;2022-10-17T14:17:45;25.40;91.90
15343;DHT22;7771;48.478;8.936;2022-10-17T14:20:16;25.40;92.00
15343;DHT22;7771;48.478;8.936;2022-10-17T14:22:41;25.30;91.80
15343;DHT22;7771;48.478;8.936;2022-10-17T14:27:53;25.30;92.40
15343;DHT22;7771;48.478;8.936;2022-10-17T14:30:35;25.30;92.90
15343;DHT22;7771;48.478;8.936;2022-10-17T14:33:01;25.30;93.30
15343;DHT22;7771;48.478;8.936;2022-10-17T14:35:28;25.20;93.60
15343;DHT22;7771;48.478;8.936;2022-10-17T14:37:58;25.10;93.80
15343;DHT22;7771;48.478;8.936;2022-10-17T14:40:24;25.10;93.80
15343;DHT22;7771;48.478;8.936;2022-10-17T14:42:51;25.10;93.50
15343;DHT22;7771;48.478;8.936;2022-10-17T14:45:29;25.00;93.60
15343;DHT22;7771;48.478;8.936;2022-10-17T14:48:00;25.00;93.80
15343;DHT22;7771;48.478;8.936;2022-10-17T14:50:28;24.90;93.80
15343;DHT22;7771;48.478;8.936;2022-10-17T14:53:04;24.90;93.80
15343;DHT22;7771;48.478;8.936;2022-10-17T14:55:29;24.80;93.40
15343;DHT22;7771;48.478;8.936;2022-10-17T14:57:55;24.70;93.40
15343;DHT22;7771;48.478;8.936;2022-10-17T15:00:22;24.70;93.40
15343;DHT22;7771;48.478;8.936;2022-10-17T15:02:49;24.70;93.30
15343;DHT22;7771;48.478;8.936;2022-10-17T15:05:16;24.60;93.70
15343;DHT22;7771;48.478;8.936;2022-10-17T15:07:43;24.60;93.70
15343;DHT22;7771;48.478;8.936;2022-10-17T15:10:34;24.60;93.50
15343;DHT22;7771;48.478;8.936;2022-10-17T15:12:59;24.60;93.50
15343;DHT22;7771;48.478;8.936;2022-10-17T15:15:27;24.60;93.60
15343;DHT22;7771;48.478;8.936;2022-10-17T15:17:53;24.50;93.90
15343;DHT22;7771;48.478;8.936;2022-10-17T15:20:21;24.50;94.00
15343;DHT22;7771;48.478;8.936;2022-10-17T15:22:48;24.40;94.20
15343;DHT22;7771;48.478;8.936;2022-10-17T15:25:15;24.40;93.90
15343;DHT22;7771;48.478;8.936;2022-10-17T15:27:41;24.40;93.70
15343;DHT22;7771;48.478;8.936;2022-10-17T15:30:18;24.40;94.00
15343;DHT22;7771;48.478;8.936;2022-10-17T15:32:43;24.30;93.90
15343;DHT22;7771;48.478;8.936;2022-10-17T15:35:10;24.20;94.10
15343;DHT22;7771;48.478;8.936;2022-10-17T15:37:36;24.30;94.30
15343;DHT22;7771;48.478;8.936;2022-10-17T15:40:04;24.20;94.30
15343;DHT22;7771;48.478;8.936;2022-10-17T15:42:30;24.10;94.50
15343;DHT22;7771;48.478;8.936;2022-10-17T15:44:57;24.10;94.70
15343;DHT22;7771;48.478;8.936;2022-10-17T15:47:28;24.00;94.80
15343;DHT22;7771;48.478;8.936;2022-10-17T15:49:53;24.00;94.90
15343;DHT22;7771;48.478;8.936;2022-10-17T15:52:20;24.00;95.20
15343;DHT22;7771;48.478;8.936;2022-10-17T15:54:46;23.90;95.30
15343;DHT22;7771;48.478;8.936;2022-10-17T15:57:18;23.80;95.70
15343;DHT22;7771;48.478;8.936;2022-10-17T15:59:44;23.70;96.00
15343;DHT22;7771;48.478;8.936;2022-10-17T16:02:12;23.60;96.30
15343;DHT22;7771;48.478;8.936;2022-10-17T16:04:38;23.50;96.70
15343;DHT22;7771;48.478;8.936;2022-10-17T16:07:05;23.40;97.70
15343;DHT22;7771;48.478;8.936;2022-10-17T16:09:33;23.40;98.30
15343;DHT22;7771;48.478;8.936;2022-10-17T16:12:00;23.30;98.70
15343;DHT22;7771;48.478;8.936;2022-10-17T16:14:27;23.20;98.90
15343;DHT22;7771;48.478;8.936;2022-10-17T16:16:53;23.10;99.10
15343;DHT22;7771;48.478;8.936;2022-10-17T16:19:21;23.00;99.50
15343;DHT22;7771;48.478;8.936;2022-10-17T16:21:48;22.90;99.60
15343;DHT22;7771;48.478;8.936;2022-10-17T16:24:14;22.80;99.90
15343;DHT22;7771;48.478;8.936;2022-10-17T16:26:42;22.70;99.90
15343;DHT22;7771;48.478;8.936;2022-10-17T16:29:09;22.60;99.90
15343;DHT22;7771;48.478;8.936;2022-10-17T16:31:38;22.50;99.90
15343;DHT22;7771;48.478;8.936;2022-10-17T16:34:04;20.30;99.90
15343;DHT22;7771;48.478;8.936;2022-10-17T16:36:31;22.40;99.90
15343;DHT22;7771;48.478;8.936;2022-10-17T16:38:59;22.30;99.90
15343;DHT22;7771;48.478;8.936;2022-10-17T16:41:28;22.20;99.90
15343;DHT22;7771;48.478;8.936;2022-10-17T16:43:53;22.10;99.90